Time;durP1;ratioP1;P1;durP2;ratioP2;P2;SDS_P1;SDS_P2;PMS_P1;PMS_P2;Temp;Humidity;BMP_temperature;BMP_pressure;BME280_temperature;BME280_humidity;BME280_pressure;Samples;Min_cycle;Max_cycle;Signal;HPM_P1;HPM_P2
2021/09/21 00:01:04;;;;;;;6.22;3.40;;;;;;;11.02;70.66;102772.44;5031321;28;20025;-41
2021/09/21 00:03:31;;;;;;;9.50;3.67;;;;;;;10.99;71.09;102770.03;5022263;28;20360;-39
2021/09/21 00:05:56;;;;;;;4.38;3.70;;;;;;;10.95;70.71;102761.38;5012728;28;20030;-42
2021/09/21 00:08:21;;;;;;;5.00;3.25;;;;;;;10.92;71.23;102761.63;5012660;28;20101;-42
2021/09/21 00:10:47;;;;;;;5.90;3.60;;;;;;;10.94;71.19;102765.03;5012808;28;20030;-41
2021/09/21 00:13:12;;;;;;;4.20;3.25;;;;;;;10.92;71.13;102767.00;5025080;28;20167;-42
2021/09/21 00:15:37;;;;;;;6.78;3.38;;;;;;;10.91;71.37;102770.69;5032350;28;20133;-39
2021/09/21 00:18:03;;;;;;;8.93;3.60;;;;;;;10.90;71.19;102768.13;5032139;28;20073;-42
2021/09/21 00:20:28;;;;;;;6.38;3.40;;;;;;;10.90;71.14;102774.41;5027088;28;20095;-40
2021/09/21 00:22:53;;;;;;;4.68;3.30;;;;;;;10.87;71.84;102771.09;5022024;28;20025;-39
2021/09/21 00:25:19;;;;;;;5.15;3.60;;;;;;;10.84;71.66;102768.69;5039190;28;20029;-40
2021/09/21 00:27:45;;;;;;;7.28;3.50;;;;;;;10.79;72.12;102770.94;5050749;28;20044;-40
2021/09/21 00:30:12;;;;;;;11.02;3.63;;;;;;;10.73;72.73;102761.56;5052014;28;20435;-40
2021/09/21 00:32:37;;;;;;;6.35;3.75;;;;;;;10.72;72.96;102766.09;5043782;28;20022;-39
2021/09/21 00:35:03;;;;;;;8.30;3.83;;;;;;;10.70;72.84;102768.06;5032126;28;20018;-41
2021/09/21 00:37:28;;;;;;;6.05;3.55;;;;;;;10.69;73.21;102774.47;5038794;28;20059;-40
2021/09/21 00:39:54;;;;;;;5.72;3.30;;;;;;;10.69;73.24;102779.84;5051911;28;20029;-41
2021/09/21 00:42:24;;;;;;;8.85;3.70;;;;;;;10.71;73.37;102777.84;5046280;28;20060;-40
2021/09/21 00:44:58;;;;;;;6.38;3.85;;;;;;;10.70;73.06;102778.00;5031003;28;20387;-40
2021/09/21 00:47:24;;;;;;;15.35;3.90;;;;;;;10.69;72.75;102782.53;5012511;28;20096;-41
2021/09/21 00:49:50;;;;;;;5.00;3.20;;;;;;;10.68;73.35;102791.59;5012736;28;20417;-40
2021/09/21 00:52:15;;;;;;;3.97;3.10;;;;;;;10.67;73.29;102792.59;5015382;28;20070;-41
2021/09/21 00:54:40;;;;;;;4.20;3.25;;;;;;;10.68;73.42;102791.59;5021941;28;20027;-41
2021/09/21 00:57:06;;;;;;;6.05;3.45;;;;;;;10.66;73.23;102796.25;5021502;28;20083;-41
2021/09/21 00:59:31;;;;;;;4.13;3.72;;;;;;;10.60;74.01;102794.09;5015973;28;20025;-41
2021/09/21 01:01:56;;;;;;;5.00;3.42;;;;;;;10.58;74.09;102787.16;5017083;28;20064;-41
2021/09/21 01:04:22;;;;;;;6.78;3.65;;;;;;;10.54;73.72;102784.72;5035754;28;20021;-41
2021/09/21 01:06:48;;;;;;;5.88;3.40;;;;;;;10.52;73.97;102780.47;5034515;28;20080;-40
2021/09/21 01:09:17;;;;;;;4.20;3.35;;;;;;;10.53;73.65;102776.78;5035727;28;20488;-41
2021/09/21 01:11:50;;;;;;;4.97;3.47;;;;;;;10.49;73.77;102780.75;5035676;28;20026;-41
2021/09/21 01:14:15;;;;;;;4.65;3.80;;;;;;;10.44;73.60;102766.81;5041254;28;20036;-42
2021/09/21 01:16:41;;;;;;;6.35;4.28;;;;;;;10.43;74.29;102759.75;5055492;28;20021;-41
2021/09/21 01:19:09;;;;;;;6.82;4.30;;;;;;;10.38;74.21;102752.06;5055295;28;20049;-40
2021/09/21 01:21:35;;;;;;;5.03;3.50;;;;;;;10.38;74.29;102753.91;5055464;28;20108;-41
2021/09/21 01:24:00;;;;;;;5.18;3.67;;;;;;;10.35;75.08;102748.75;5036870;28;20109;-41
2021/09/21 01:26:25;;;;;;;9.23;3.97;;;;;;;10.33;74.67;102749.75;5035309;28;20057;-41
2021/09/21 01:28:51;;;;;;;5.05;3.80;;;;;;;10.32;75.30;102753.47;5035363;28;20060;-41
2021/09/21 01:31:17;;;;;;;5.03;3.97;;;;;;;10.36;74.92;102750.50;5035401;28;20053;-40
2021/09/21 01:33:47;;;;;;;8.63;4.05;;;;;;;10.33;75.22;102755.16;5034449;28;20025;-41
2021/09/21 01:36:17;;;;;;;5.88;3.95;;;;;;;10.31;75.43;102759.81;5035074;28;20033;-40
2021/09/21 01:38:42;;;;;;;5.82;3.83;;;;;;;10.31;74.99;102767.88;5019746;28;20031;-41
2021/09/21 01:41:08;;;;;;;4.93;3.97;;;;;;;10.29;74.61;102772.56;5015408;28;20113;-41
2021/09/21 01:43:33;;;;;;;4.80;3.72;;;;;;;10.31;74.69;102762.50;5028134;28;20064;-41
2021/09/21 01:45:58;;;;;;;5.88;4.03;;;;;;;10.30;74.91;102760.81;5034241;28;20026;-40
2021/09/21 01:48:24;;;;;;;6.75;3.90;;;;;;;10.30;74.68;102762.66;5034914;28;20021;-40
2021/09/21 01:50:57;;;;;;;4.60;3.97;;;;;;;10.28;74.87;102761.91;5035058;28;20136;-41
2021/09/21 01:58:46;;;;;;;6.18;3.80;;;;;;;10.24;74.91;102766.69;5016315;28;20284;-41
2021/09/21 02:01:12;;;;;;;;;;;;;;;10.22;74.96;102763.28;5015419;28;20048;-41
2021/09/21 02:03:38;;;;;;;6.85;3.60;;;;;;;10.20;74.75;102754.47;5025750;28;20313;-41
2021/09/21 02:06:05;;;;;;;5.00;3.97;;;;;;;10.21;74.45;102758.88;5034604;28;20033;-41
2021/09/21 02:08:30;;;;;;;8.65;4.07;;;;;;;10.21;74.67;102758.00;5034741;28;20022;-41
2021/09/21 02:10:55;;;;;;;5.32;4.03;;;;;;;10.18;74.61;102753.75;5034507;28;20017;-41
2021/09/21 02:13:21;;;;;;;6.78;4.10;;;;;;;10.19;75.16;102750.09;5022945;28;20053;-41
2021/09/21 02:15:46;;;;;;;6.90;4.65;;;;;;;10.19;74.60;102755.47;5053431;28;20108;-41
2021/09/21 02:18:11;;;;;;;6.35;4.18;;;;;;;10.19;74.63;102752.78;5054210;28;20130;-40
2021/09/21 02:20:37;;;;;;;9.32;4.25;;;;;;;10.18;74.84;102759.13;5054310;28;20383;-41
2021/09/21 02:23:02;;;;;;;6.88;3.83;;;;;;;10.18;75.22;102761.81;5031372;28;20080;-41
2021/09/21 02:25:27;;;;;;;5.20;3.88;;;;;;;10.18;74.83;102771.75;5014622;28;20030;-41
2021/09/21 02:27:53;;;;;;;7.40;3.70;;;;;;;10.14;74.82;102771.16;5013107;28;20033;-40
2021/09/21 02:30:18;;;;;;;6.55;4.60;;;;;;;10.08;74.65;102760.91;4997030;28;20030;-41
2021/09/21 02:32:46;;;;;;;7.05;4.72;;;;;;;10.02;75.67;102761.44;5023134;28;20029;-40
2021/09/21 02:35:11;;;;;;;6.47;4.00;;;;;;;9.98;75.37;102765.34;5031961;28;20021;-41
2021/09/21 02:37:36;;;;;;;7.35;4.53;;;;;;;9.95;75.51;102768.31;5013256;28;20338;-40
2021/09/21 02:40:03;;;;;;;6.00;4.78;;;;;;;9.90;75.80;102771.44;5014333;28;20032;-40
2021/09/21 02:42:28;;;;;;;8.95;4.80;;;;;;;9.89;75.95;102775.91;5022485;28;20215;-41
2021/09/21 02:44:54;;;;;;;6.32;4.80;;;;;;;9.88;75.61;102773.38;5021982;28;20421;-40
2021/09/21 02:47:19;;;;;;;8.15;4.68;;;;;;;9.88;75.89;102786.84;5014292;28;20038;-40
2021/09/21 02:49:45;;;;;;;6.72;4.32;;;;;;;9.88;75.98;102793.06;5014001;28;20029;-40
2021/09/21 02:52:10;;;;;;;6.25;5.18;;;;;;;9.85;76.01;102787.94;5018577;28;20025;-41
2021/09/21 02:54:35;;;;;;;9.30;5.28;;;;;;;9.81;75.66;102796.38;5033737;28;20388;-40
2021/09/21 02:57:01;;;;;;;6.10;5.03;;;;;;;9.78;76.06;102799.34;5033840;28;20079;-41
2021/09/21 02:59:26;;;;;;;5.70;4.32;;;;;;;9.78;75.91;102802.03;5033876;28;20030;-41
2021/09/21 03:01:52;;;;;;;5.47;4.30;;;;;;;9.73;76.10;102794.34;5030217;28;20064;-40
2021/09/21 03:04:25;;;;;;;7.00;4.90;;;;;;;9.71;76.43;102793.59;5013864;28;20037;-40
2021/09/21 03:06:54;;;;;;;9.23;4.88;;;;;;;9.71;76.58;102795.44;5014030;28;20034;-41
2021/09/21 03:17:27;;;;;;;5.97;4.20;;;;;;;9.65;76.10;102803.03;5033479;28;20040;-41
2021/09/21 03:19:58;;;;;;;7.93;5.22;;;;;;;9.61;76.20;102798.91;5033108;28;20045;-42
2021/09/21 03:22:24;;;;;;;7.40;4.80;;;;;;;9.59;76.67;102797.34;5025855;28;20044;-41
2021/09/21 03:24:50;;;;;;;5.97;4.63;;;;;;;9.56;76.57;102798.44;5013342;28;20030;-41
2021/09/21 03:27:16;;;;;;;6.25;4.88;;;;;;;9.56;76.38;102800.28;5013590;28;20176;-41
2021/09/21 03:29:41;;;;;;;6.78;4.93;;;;;;;9.52;76.35;102812.25;5013415;28;20069;-40
2021/09/21 03:32:07;;;;;;;8.18;4.90;;;;;;;9.49;76.75;102809.84;5015901;28;20030;-40
2021/09/21 03:34:34;;;;;;;8.02;5.10;;;;;;;9.49;76.49;102817.91;5033120;28;20025;-40
2021/09/21 03:36:59;;;;;;;8.73;4.82;;;;;;;9.47;76.97;102814.47;5032745;28;20032;-40
2021/09/21 03:39:25;;;;;;;9.07;5.15;;;;;;;9.43;77.30;102822.78;5032516;28;20025;-41
2021/09/21 03:41:50;;;;;;;6.47;4.40;;;;;;;9.40;76.93;102825.75;5032186;28;20026;-40
2021/09/21 03:44:16;;;;;;;7.97;4.82;;;;;;;9.43;77.15;102827.31;5033173;28;20026;-40
2021/09/21 03:46:41;;;;;;;7.97;4.93;;;;;;;9.42;77.07;102841.72;5032943;28;20137;-41
2021/09/21 03:49:07;;;;;;;5.45;4.18;;;;;;;9.43;77.11;102836.22;5032819;28;20033;-40
2021/09/21 03:51:32;;;;;;;6.63;4.72;;;;;;;9.43;76.74;102838.91;5030942;28;20152;-40
2021/09/21 03:53:57;;;;;;;5.30;4.78;;;;;;;9.43;76.69;102840.75;5011643;28;20096;-41
2021/09/21 03:56:23;;;;;;;7.97;4.82;;;;;;;9.37;77.01;102823.31;5011665;28;20066;-41
2021/09/21 03:58:48;;;;;;;8.65;5.40;;;;;;;9.35;76.77;102827.94;5012838;28;20026;-40
2021/09/21 04:01:13;;;;;;;6.95;5.00;;;;;;;9.29;77.48;102831.13;5011402;28;20026;-41
2021/09/21 04:03:39;;;;;;;6.63;5.35;;;;;;;9.30;77.24;102826.63;5012862;28;20041;-40
2021/09/21 04:06:04;;;;;;;8.57;5.88;;;;;;;9.25;77.35;102826.97;5012928;28;20025;-41
2021/09/21 04:08:29;;;;;;;12.57;5.75;;;;;;;9.19;77.55;102828.34;5012744;28;20033;-41
2021/09/21 04:10:55;;;;;;;6.18;5.28;;;;;;;9.14;77.71;102832.38;5012635;28;20440;-40
2021/09/21 04:13:20;;;;;;;13.38;5.65;;;;;;;9.18;77.98;102831.13;5015709;28;20084;-41
2021/09/21 04:15:45;;;;;;;9.02;5.50;;;;;;;9.18;77.80;102837.34;5052300;28;20423;-41
2021/09/21 04:18:10;;;;;;;6.88;5.55;;;;;;;9.19;77.36;102838.25;5052063;28;20477;-40
2021/09/21 04:20:36;;;;;;;9.23;5.18;;;;;;;9.20;77.33;102842.63;5052196;28;20490;-41
2021/09/21 04:23:01;;;;;;;8.00;5.30;;;;;;;9.21;77.62;102847.00;5035371;28;20029;-40
2021/09/21 04:25:29;;;;;;;7.05;5.43;;;;;;;9.21;77.29;102847.84;5022253;28;20084;-41
2021/09/21 04:27:54;;;;;;;10.07;5.65;;;;;;;9.21;77.30;102853.22;5012653;28;20052;-41
2021/09/21 04:30:21;;;;;;;7.78;5.25;;;;;;;9.24;77.65;102852.13;5014888;28;20030;-41
2021/09/21 04:32:47;;;;;;;7.77;5.23;;;;;;;9.25;77.28;102861.91;5032757;28;20476;-41
2021/09/21 04:35:13;;;;;;;7.00;4.85;;;;;;;9.23;76.63;102862.03;5030128;28;20039;-41
2021/09/21 04:37:38;;;;;;;7.28;5.93;;;;;;;9.19;77.17;102859.72;5025250;28;20384;-42
2021/09/21 04:40:05;;;;;;;8.00;5.70;;;;;;;9.16;78.01;102865.31;5026945;28;20032;-41
2021/09/21 04:42:30;;;;;;;8.23;5.43;;;;;;;9.16;77.66;102865.31;5012351;28;20168;-42
2021/09/21 04:44:56;;;;;;;14.13;6.07;;;;;;;9.16;77.59;102870.69;5016583;28;20018;-42
2021/09/21 04:47:21;;;;;;;8.93;5.70;;;;;;;9.17;77.92;102872.44;5022930;28;20033;-42
2021/09/21 04:49:46;;;;;;;9.10;6.05;;;;;;;9.17;77.65;102873.28;5022375;28;20111;-41
2021/09/21 04:52:13;;;;;;;10.07;6.30;;;;;;;9.15;78.17;102869.84;5031972;28;20033;-41
2021/09/21 04:54:38;;;;;;;8.45;5.93;;;;;;;9.12;78.18;102878.16;5027893;28;20420;-42
2021/09/21 04:57:04;;;;;;;8.35;5.47;;;;;;;9.13;78.14;102876.31;4994483;28;20056;-41
2021/09/21 04:59:29;;;;;;;11.90;6.15;;;;;;;9.12;78.05;102878.16;5012102;28;20030;-42
2021/09/21 05:01:54;;;;;;;11.60;6.55;;;;;;;9.10;78.19;102879.25;5017882;28;20041;-40
2021/09/21 05:04:19;;;;;;;11.13;5.93;;;;;;;9.08;78.87;102873.16;5017222;28;20025;-41
2021/09/21 05:06:45;;;;;;;15.77;6.30;;;;;;;9.08;78.98;102883.88;5027754;28;20041;-40
2021/09/21 05:09:13;;;;;;;17.20;6.78;;;;;;;9.06;78.83;102877.78;5032141;28;20029;-40
2021/09/21 05:11:38;;;;;;;;;;;;;;;9.07;78.94;102890.25;5032403;28;20030;-40
2021/09/21 05:14:04;;;;;;;17.55;6.38;;;;;;;9.08;78.92;102883.88;5030884;28;19913;-40
2021/09/21 05:16:29;;;;;;;13.90;6.45;;;;;;;9.09;79.19;102877.56;5020276;28;20033;-41
2021/09/21 05:18:54;;;;;;;18.65;6.68;;;;;;;9.12;79.16;102885.38;5030978;28;20376;-42
2021/09/21 05:21:20;;;;;;;11.93;6.43;;;;;;;9.15;79.06;102869.00;5023098;28;20066;-40
2021/09/21 05:23:45;;;;;;;14.00;6.50;;;;;;;9.17;78.85;102888.53;5011860;28;20053;-41
2021/09/21 05:26:11;;;;;;;12.68;5.93;;;;;;;9.18;79.08;102890.25;5024529;28;20462;-40
2021/09/21 05:28:36;;;;;;;13.07;6.10;;;;;;;9.18;79.71;102890.25;5030040;28;20030;-41
2021/09/21 05:31:01;;;;;;;8.45;6.35;;;;;;;9.18;79.36;102888.41;5031402;28;20064;-40
2021/09/21 05:33:27;;;;;;;8.88;6.60;;;;;;;9.22;79.67;102889.88;5031340;28;20060;-41
2021/09/21 05:35:53;;;;;;;9.55;6.28;;;;;;;9.23;79.78;102893.41;5016127;28;20097;-40
2021/09/21 05:38:18;;;;;;;8.82;6.65;;;;;;;9.27;79.96;102888.63;5027687;28;20087;-40
2021/09/21 05:40:43;;;;;;;9.25;6.72;;;;;;;9.32;79.68;102897.19;5035619;28;20033;-40
2021/09/21 05:43:09;;;;;;;12.25;6.32;;;;;;;9.34;79.74;102885.34;5034752;28;20512;-40
2021/09/21 05:45:35;;;;;;;9.07;6.38;;;;;;;9.36;79.42;102875.31;5033774;28;20449;-43
2021/09/21 05:48:00;;;;;;;10.98;5.90;;;;;;;9.40;79.37;102879.50;5014650;28;20021;-41
2021/09/21 05:50:25;;;;;;;10.55;6.07;;;;;;;9.47;79.20;102881.66;5015013;28;20488;-42
2021/09/21 05:52:51;;;;;;;7.45;5.82;;;;;;;9.53;79.19;102875.78;5039631;28;20435;-41
2021/09/21 05:55:16;;;;;;;7.85;6.38;;;;;;;9.59;78.46;102881.53;5019895;28;20034;-41
2021/09/21 05:57:44;;;;;;;8.30;6.03;;;;;;;9.66;78.63;102880.06;5034792;28;20029;-41
2021/09/21 06:00:10;;;;;;;11.88;7.07;;;;;;;9.78;77.97;102883.56;5027737;28;20033;-41
2021/09/21 06:02:35;;;;;;;12.43;6.40;;;;;;;9.88;77.86;102886.34;5028838;28;20049;-41
2021/09/21 06:05:01;;;;;;;11.95;6.43;;;;;;;9.98;77.45;102889.09;5027189;28;20069;-41
2021/09/21 06:07:26;;;;;;;14.60;6.40;;;;;;;10.13;77.05;102895.91;5032348;28;20112;-41
2021/09/21 06:09:51;;;;;;;16.65;6.75;;;;;;;10.25;76.54;102908.31;5034016;28;20184;-40
2021/09/21 06:12:17;;;;;;;13.60;5.97;;;;;;;10.32;75.78;102909.56;5032554;28;20360;-41
2021/09/21 06:14:43;;;;;;;8.23;5.90;;;;;;;10.46;74.74;102927.22;5033630;28;20040;-41
2021/09/21 06:17:09;;;;;;;10.55;6.10;;;;;;;10.60;74.99;102923.34;5015680;28;20021;-41
2021/09/21 06:19:34;;;;;;;15.07;6.28;;;;;;;10.68;74.22;102926.22;5033062;28;20525;-41
2021/09/21 06:21:59;;;;;;;13.63;6.13;;;;;;;10.77;74.30;102920.06;5032162;28;20029;-41
2021/09/21 06:24:25;;;;;;;9.18;5.72;;;;;;;10.83;72.37;102923.22;5033710;28;20098;-42
2021/09/21 06:26:50;;;;;;;9.77;6.18;;;;;;;10.92;72.40;102925.09;5033734;28;20134;-42
2021/09/21 06:29:16;;;;;;;8.45;5.88;;;;;;;10.99;71.89;102923.59;5033688;28;20021;-41
2021/09/21 06:31:42;;;;;;;10.45;5.70;;;;;;;11.08;71.49;102928.16;5033632;28;20022;-42
2021/09/21 06:34:08;;;;;;;10.52;5.70;;;;;;;11.19;71.51;102919.16;5033058;28;20026;-41
2021/09/21 06:36:33;;;;;;;9.20;5.80;;;;;;;11.33;71.43;102920.63;5033078;28;20384;-41
2021/09/21 06:38:59;;;;;;;7.68;5.53;;;;;;;11.48;70.95;102937.28;5028596;28;20111;-42
2021/09/21 06:41:24;;;;;;;11.98;5.70;;;;;;;11.62;70.93;102935.06;5014578;28;20084;-42
2021/09/21 06:43:49;;;;;;;11.68;5.45;;;;;;;11.82;69.55;102935.09;5013490;28;20026;-41
2021/09/21 06:46:15;;;;;;;10.40;5.63;;;;;;;12.15;68.72;102938.47;5013043;28;20026;-42
2021/09/21 06:48:40;;;;;;;14.60;5.72;;;;;;;12.35;68.13;102956.38;5013463;28;20096;-42
2021/09/21 06:51:07;;;;;;;15.05;5.10;;;;;;;12.50;66.68;102954.09;4990479;28;20069;-42
2021/09/21 06:53:32;;;;;;;10.55;5.35;;;;;;;12.65;66.40;102959.91;5020024;28;20522;-42
2021/09/21 06:55:58;;;;;;;12.18;5.45;;;;;;;12.82;66.18;102961.88;5029151;28;20041;-40
2021/09/21 06:58:23;;;;;;;13.52;4.95;;;;;;;13.01;66.37;102952.03;5012943;28;20033;-41
2021/09/21 07:00:49;;;;;;;9.13;4.68;;;;;;;13.22;64.58;102960.78;5014196;28;20038;-42
2021/09/21 07:03:14;;;;;;;11.18;5.00;;;;;;;13.30;63.77;102952.81;5024794;28;20029;-42
2021/09/21 07:05:40;;;;;;;9.02;5.00;;;;;;;13.37;63.23;102959.31;5029712;28;20044;-41
2021/09/21 07:08:05;;;;;;;11.32;5.00;;;;;;;13.42;62.36;102961.56;5032531;28;20025;-41
2021/09/21 07:10:31;;;;;;;8.93;4.85;;;;;;;13.55;63.12;102972.06;5021345;28;20026;-41
2021/09/21 07:12:56;;;;;;;8.82;5.40;;;;;;;13.94;62.10;102977.28;5043095;28;20389;-43
2021/09/21 07:15:22;;;;;;;14.00;5.18;;;;;;;14.39;58.87;102981.78;5023394;28;20106;-41
2021/09/21 07:17:49;;;;;;;11.32;4.88;;;;;;;14.90;57.59;102986.50;5031767;28;20485;-41
2021/09/21 07:20:14;;;;;;;9.40;4.95;;;;;;;15.27;56.08;102981.81;5030534;28;20485;-41
2021/09/21 07:22:40;;;;;;;6.72;4.07;;;;;;;15.51;55.22;102995.53;5032644;28;20049;-41
2021/09/21 07:25:06;;;;;;;8.52;4.20;;;;;;;15.91;53.67;102991.31;5014279;28;20046;-41
2021/09/21 07:27:31;;;;;;;8.50;4.22;;;;;;;16.52;52.39;102985.66;5012753;28;20025;-41
2021/09/21 07:29:57;;;;;;;10.18;3.80;;;;;;;16.70;51.01;102997.22;5021840;28;20176;-42
2021/09/21 07:32:22;;;;;;;9.82;5.05;;;;;;;16.81;50.71;102996.03;5030340;28;20029;-42
2021/09/21 07:34:47;;;;;;;8.23;4.32;;;;;;;16.65;48.70;103005.03;5021314;28;20022;-41
2021/09/21 07:37:13;;;;;;;10.65;4.88;;;;;;;17.24;50.78;103004.81;5036402;28;20033;-42
2021/09/21 07:39:39;;;;;;;5.38;3.88;;;;;;;17.29;49.42;103003.25;5014875;28;20036;-42
2021/09/21 07:42:04;;;;;;;6.07;4.20;;;;;;;17.43;48.73;103004.44;5016833;28;20539;-42
2021/09/21 07:44:29;;;;;;;6.57;3.90;;;;;;;17.99;48.63;103015.31;5029607;28;20033;-43
2021/09/21 07:46:56;;;;;;;10.82;4.38;;;;;;;18.80;47.73;103019.38;5018105;28;20109;-41
2021/09/21 07:49:22;;;;;;;13.57;3.90;;;;;;;19.76;44.05;103025.06;5025309;28;20041;-41
2021/09/21 07:51:48;;;;;;;11.13;3.97;;;;;;;20.32;43.47;103024.44;5031751;28;20025;-41
2021/09/21 07:54:13;;;;;;;10.85;3.95;;;;;;;20.58;41.92;103023.91;5028086;28;20045;-42
2021/09/21 07:56:38;;;;;;;6.18;3.40;;;;;;;20.65;38.57;103030.31;5030194;28;20055;-42
2021/09/21 07:59:05;;;;;;;6.53;3.30;;;;;;;20.83;40.39;103027.94;5023190;28;20041;-43
2021/09/21 08:01:31;;;;;;;6.55;3.15;;;;;;;21.56;38.12;103033.09;5020789;28;20105;-42
2021/09/21 08:03:57;;;;;;;5.10;3.17;;;;;;;20.41;37.82;103025.19;5025548;28;20148;-41
2021/09/21 08:06:25;;;;;;;8.35;3.00;;;;;;;20.74;40.31;103022.78;5032085;28;20500;-42
2021/09/21 08:08:51;;;;;;;5.45;3.72;;;;;;;21.05;38.57;103017.78;5031145;28;20026;-42
2021/09/21 08:11:16;;;;;;;12.93;3.45;;;;;;;21.54;37.75;103017.91;5031299;28;20044;-42
2021/09/21 08:13:42;;;;;;;3.97;2.60;;;;;;;21.34;36.97;103009.56;5025466;28;20028;-41
2021/09/21 08:16:07;;;;;;;6.88;2.83;;;;;;;20.96;38.33;103015.41;5020894;28;20034;-42
2021/09/21 08:18:33;;;;;;;4.82;2.40;;;;;;;21.11;38.14;103016.13;5020541;28;20145;-42
2021/09/21 08:21:00;;;;;;;4.30;2.03;;;;;;;21.04;35.65;103018.84;5023895;28;20560;-42
2021/09/21 08:23:25;;;;;;;2.95;1.90;;;;;;;20.86;35.42;103017.66;5027846;28;20114;-42
2021/09/21 08:25:51;;;;;;;4.50;2.00;;;;;;;20.45;35.83;103002.69;5027242;28;20029;-42
2021/09/21 08:28:17;;;;;;;3.17;1.48;;;;;;;20.36;36.60;103015.66;5019060;28;20076;-41
2021/09/21 08:30:42;;;;;;;8.07;2.10;;;;;;;20.77;36.53;103016.91;5013258;28;20033;-42
2021/09/21 08:33:07;;;;;;;3.60;1.83;;;;;;;19.69;36.46;103026.84;5027600;28;20087;-42
2021/09/21 08:35:33;;;;;;;3.97;1.50;;;;;;;19.75;36.77;103028.84;5022819;28;20026;-42
2021/09/21 08:37:58;;;;;;;4.15;1.65;;;;;;;20.33;37.37;103027.00;5022830;28;20048;-41
2021/09/21 08:40:23;;;;;;;5.28;2.00;;;;;;;20.44;35.01;103016.59;5018465;28;20072;-42
2021/09/21 08:42:49;;;;;;;2.85;1.67;;;;;;;20.53;35.51;103020.88;5035176;28;20440;-42
2021/09/21 08:45:15;;;;;;;3.70;1.88;;;;;;;20.06;35.96;103020.38;5030706;28;20040;-42
2021/09/21 08:47:41;;;;;;;3.05;1.92;;;;;;;20.03;36.95;103030.84;5011585;28;20033;-42
2021/09/21 08:50:08;;;;;;;12.73;2.58;;;;;;;19.92;37.40;103021.25;5020180;28;20060;-42
2021/09/21 08:52:34;;;;;;;20.48;2.65;;;;;;;20.44;35.51;103027.53;5030163;28;20037;-42
2021/09/21 08:55:00;;;;;;;6.70;1.90;;;;;;;20.60;34.12;103028.16;5029158;28;20104;-42
2021/09/21 08:57:26;;;;;;;2.50;1.63;;;;;;;20.82;34.65;103025.38;5031636;28;20036;-42
2021/09/21 08:59:54;;;;;;;6.80;1.70;;;;;;;20.90;34.27;103032.63;5028882;28;20033;-42
2021/09/21 09:02:21;;;;;;;;;;;;;;;20.88;35.16;103034.69;5017507;28;20026;-41
2021/09/21 09:05:01;;;;;;;10.80;1.60;;;;;;;20.96;34.48;103038.16;5040849;28;20363;-42
2021/09/21 09:07:26;;;;;;;8.32;1.80;;;;;;;21.54;34.28;103040.72;5023516;28;20033;-42
2021/09/21 09:10:00;;;;;;;8.20;2.00;;;;;;;21.47;35.10;103042.56;5031429;28;20088;-41
2021/09/21 09:12:30;;;;;;;6.50;2.35;;;;;;;20.67;35.98;103041.03;5018153;28;20092;-42
2021/09/21 09:14:56;;;;;;;6.30;2.10;;;;;;;20.35;37.55;103030.41;5024215;28;20495;-41
2021/09/21 09:17:21;;;;;;;6.13;2.05;;;;;;;19.97;37.51;103023.44;5016633;28;20018;-41
2021/09/21 09:19:50;;;;;;;8.90;2.17;;;;;;;19.91;37.79;103033.25;5030933;28;20527;-41
2021/09/21 09:22:26;;;;;;;6.50;1.92;;;;;;;19.69;37.88;103029.56;5035351;28;20045;-42
2021/09/21 09:24:55;;;;;;;6.03;2.50;;;;;;;19.39;39.49;103024.09;5027347;28;20033;-41
2021/09/21 09:27:44;;;;;;;7.70;2.38;;;;;;;19.33;40.18;103040.38;5014078;28;20036;-41
2021/09/21 09:30:15;;;;;;;12.50;2.70;;;;;;;19.05;40.11;103038.25;5028373;28;20034;-41
2021/09/21 09:32:50;;;;;;;2.88;1.92;;;;;;;18.53;40.57;103028.91;5034214;28;20065;-41
2021/09/21 09:35:32;;;;;;;8.75;2.33;;;;;;;18.67;42.31;103034.63;5035385;28;20033;-41
2021/09/21 09:37:59;;;;;;;3.13;2.00;;;;;;;19.01;40.58;103032.31;5034937;28;20048;-42
2021/09/21 09:40:26;;;;;;;3.33;2.20;;;;;;;18.51;40.16;103033.72;5049248;28;20030;-41
2021/09/21 09:42:51;;;;;;;6.03;1.70;;;;;;;18.25;41.98;103036.78;5051901;28;20033;-40
2021/09/21 09:45:36;;;;;;;4.70;2.08;;;;;;;18.10;42.43;103030.41;5055066;28;20087;-41
2021/09/21 09:48:02;;;;;;;4.82;2.00;;;;;;;18.13;42.94;103041.78;5041787;28;20036;-41
2021/09/21 09:50:42;;;;;;;2.50;1.80;;;;;;;18.08;43.39;103036.03;5024839;28;20022;-41
2021/09/21 09:53:13;;;;;;;5.10;2.17;;;;;;;18.12;42.17;103037.38;5040371;28;20048;-41
2021/09/21 09:55:40;;;;;;;4.95;2.00;;;;;;;18.35;42.46;103036.53;5043177;28;20038;-42
2021/09/21 09:58:06;;;;;;;4.35;2.28;;;;;;;18.24;42.61;103034.22;5046557;28;20399;-41
2021/09/21 10:00:32;;;;;;;7.70;2.10;;;;;;;18.38;42.82;103036.22;5034276;28;20034;-42
2021/09/21 10:02:58;;;;;;;6.38;1.80;;;;;;;18.38;41.72;103028.03;5026557;28;20029;-41
2021/09/21 10:05:24;;;;;;;5.45;1.75;;;;;;;18.12;41.77;103025.63;5034169;28;20047;-41
2021/09/21 10:07:49;;;;;;;3.47;1.92;;;;;;;18.12;41.53;103029.19;5032759;28;20121;-41
2021/09/21 10:10:15;;;;;;;5.30;2.00;;;;;;;18.20;42.21;103029.16;5015941;28;20041;-41
2021/09/21 10:12:41;;;;;;;2.83;1.77;;;;;;;18.31;41.85;103035.22;5031477;28;20021;-41
2021/09/21 10:15:08;;;;;;;6.72;1.88;;;;;;;18.09;44.38;103037.75;5039939;28;20030;-41
2021/09/21 10:17:35;;;;;;;5.65;2.10;;;;;;;18.28;44.75;103041.03;5044589;28;20036;-42
2021/09/21 10:20:03;;;;;;;3.88;2.10;;;;;;;18.41;44.24;103036.69;5043592;28;20124;-41
2021/09/21 10:22:30;;;;;;;5.07;2.53;;;;;;;18.35;44.93;103042.00;5033666;28;20039;-41
2021/09/21 10:25:04;;;;;;;3.05;2.20;;;;;;;18.50;45.48;103032.00;5033181;28;20044;-41
2021/09/21 10:27:29;;;;;;;4.97;2.90;;;;;;;18.52;46.76;103031.84;5032001;28;20029;-42
2021/09/21 10:30:00;;;;;;;4.25;2.53;;;;;;;18.73;46.67;103023.00;5033830;28;20036;-42
2021/09/21 10:32:26;;;;;;;5.85;3.00;;;;;;;18.81;45.20;103025.69;5034211;28;20025;-41
2021/09/21 10:34:51;;;;;;;5.65;2.80;;;;;;;18.96;45.30;103028.47;5034167;28;20433;-42
2021/09/21 10:37:18;;;;;;;4.45;2.40;;;;;;;19.14;44.78;103025.38;5032931;28;20041;-42
2021/09/21 10:39:44;;;;;;;14.18;2.83;;;;;;;19.33;45.32;103022.13;5033741;28;20026;-41
2021/09/21 10:42:13;;;;;;;4.63;2.92;;;;;;;19.13;44.88;103023.69;5033845;28;20026;-41
2021/09/21 10:44:54;;;;;;;5.53;3.00;;;;;;;19.11;45.52;103025.75;5033775;28;20033;-42
2021/09/21 10:47:25;;;;;;;7.07;3.63;;;;;;;19.08;45.33;103022.34;5032400;28;20111;-41
2021/09/21 10:49:50;;;;;;;9.88;4.18;;;;;;;19.18;44.52;103027.53;5032194;28;20030;-41
2021/09/21 10:52:17;;;;;;;5.65;3.88;;;;;;;19.10;44.90;103024.06;5033704;28;20075;-42
2021/09/21 10:54:43;;;;;;;5.47;3.88;;;;;;;19.27;44.77;103023.72;5033769;28;20025;-41
2021/09/21 10:57:13;;;;;;;6.05;3.33;;;;;;;19.29;44.82;103028.97;5029616;28;20120;-42
2021/09/21 10:59:40;;;;;;;5.00;2.95;;;;;;;19.45;44.96;103023.31;5033127;28;20040;-42
2021/09/21 11:02:08;;;;;;;6.40;3.60;;;;;;;19.50;45.20;103028.22;5033494;28;20032;-41
2021/09/21 11:04:38;;;;;;;4.03;3.03;;;;;;;19.73;44.53;103022.69;5032189;28;20276;-41
2021/09/21 11:07:03;;;;;;;7.05;4.15;;;;;;;20.08;43.88;103014.72;5033552;28;20370;-42
2021/09/21 11:09:28;;;;;;;5.18;2.97;;;;;;;20.22;42.99;103024.78;5033437;28;20047;-42
2021/09/21 11:12:08;;;;;;;6.75;3.35;;;;;;;20.12;43.34;103029.72;5033526;28;20116;-41
2021/09/21 11:14:38;;;;;;;6.90;2.70;;;;;;;20.25;43.52;103037.19;5031914;28;20400;-41
2021/09/21 11:17:04;;;;;;;7.18;3.13;;;;;;;20.45;42.62;103032.78;5033128;28;20389;-41
2021/09/21 11:19:31;;;;;;;4.97;2.60;;;;;;;20.57;43.75;103027.69;5041323;28;20041;-42
2021/09/21 11:22:03;;;;;;;4.30;3.17;;;;;;;20.71;42.31;103026.78;5053499;28;20602;-41
2021/09/21 11:24:29;;;;;;;4.53;2.92;;;;;;;21.35;39.65;103019.47;5051752;28;20037;-41
2021/09/21 11:27:05;;;;;;;3.28;2.70;;;;;;;22.32;38.58;103021.22;5021692;28;20029;-42
2021/09/21 11:29:34;;;;;;;4.78;2.72;;;;;;;22.65;39.51;103014.94;5023475;28;20075;-42
2021/09/21 11:32:00;;;;;;;6.95;3.10;;;;;;;23.49;38.66;103017.00;5030797;28;20145;-42
2021/09/21 11:34:28;;;;;;;5.88;2.88;;;;;;;23.71;39.43;103019.47;5024112;28;20109;-42
2021/09/21 11:36:54;;;;;;;5.05;2.60;;;;;;;24.36;37.33;103022.13;5011777;28;20036;-41